Terminal Aerodrome Forecast
Issued by NWS Nashville, TN

Home | Current Version | Previous Version | Text Only | Print | Product List | Glossary On
Versions: 1 2 3 4 5 6 7 8 9 10 11 12 13 14 15 16
454
FTUS44 KOHX 230525
TAFBNA
TAF
KBNA 230525Z 2306/2406 18012KT P6SM OVC035
      TEMPO 2306/2308 18013G19KT 2SM RA OVC020
     FM230800 17011G18KT 5SM -SHRA OVC020
     FM231200 26006KT 6SM -RA OVC007
     FM231600 27008KT P6SM OVC010
     FM232200 27008KT P6SM BKN090=

USA.gov is the U.S. government's official web portal to all federal, state and local government web resources and services.